Time;durP1;ratioP1;P1;durP2;ratioP2;P2;SDS_P1;SDS_P2;PMS_P1;PMS_P2;Temp;Humidity;BMP_temperature;BMP_pressure;BME280_temperature;BME280_humidity;BME280_pressure;Samples;Min_cycle;Max_cycle;Signal;HPM_P1;HPM_P2
2022/12/06 00:00:55;;;;;;;20.67;15.33;;;5.70;99.90;;;;;;5051554;28;20834;-50
2022/12/06 00:03:22;;;;;;;22.47;15.70;;;6.00;99.90;;;;;;5051368;28;20422;-50
2022/12/06 00:05:48;;;;;;;20.37;15.23;;;5.80;99.90;;;;;;5051525;28;20966;-50
2022/12/06 00:08:16;;;;;;;20.80;14.93;;;5.90;99.90;;;;;;5051440;28;20413;-50
2022/12/06 00:10:43;;;;;;;18.70;14.73;;;5.60;99.90;;;;;;5051077;28;20406;-50
2022/12/06 00:13:09;;;;;;;21.50;15.63;;;5.30;99.90;;;;;;5051594;28;20450;-50
2022/12/06 00:15:36;;;;;;;21.85;15.10;;;6.00;99.90;;;;;;5055385;28;20426;-50
2022/12/06 00:18:03;;;;;;;19.70;14.50;;;6.00;99.90;;;;;;5055381;28;20259;-50
2022/12/06 00:20:30;;;;;;;22.70;14.80;;;6.10;99.90;;;;;;5054708;28;20410;-50
2022/12/06 00:22:56;;;;;;;19.03;14.20;;;5.90;99.90;;;;;;5055354;28;20306;-49
2022/12/06 00:25:24;;;;;;;19.60;14.40;;;5.40;99.90;;;;;;5055188;28;20431;-49
2022/12/06 00:27:51;;;;;;;22.83;15.43;;;5.90;99.90;;;;;;5054966;28;20436;-50
2022/12/06 00:30:18;;;;;;;17.87;14.47;;;6.10;99.90;;;;;;5054292;28;20435;-50
2022/12/06 00:32:44;;;;;;;21.97;15.70;;;6.20;99.90;;;;;;5054872;28;20485;-50
2022/12/06 00:35:11;;;;;;;20.27;15.33;;;6.00;99.90;;;;;;5054932;28;20428;-50
2022/12/06 00:37:38;;;;;;;20.00;14.83;;;5.50;99.90;;;;;;5054953;28;20425;-50
2022/12/06 00:40:05;;;;;;;17.83;14.60;;;6.10;99.90;;;;;;5054293;28;20416;-50
2022/12/06 00:42:33;;;;;;;18.50;14.13;;;6.00;99.90;;;;;;5055113;28;20455;-50
2022/12/06 00:45:00;;;;;;;19.27;13.55;;;5.70;99.90;;;;;;5054569;28;20444;-50
2022/12/06 00:47:26;;;;;;;18.23;13.43;;;6.10;99.90;;;;;;5054787;28;20201;-50
2022/12/06 00:49:53;;;;;;;18.70;13.73;;;5.70;99.90;;;;;;5054021;28;20978;-50
2022/12/06 00:52:19;;;;;;;17.33;13.45;;;5.50;99.90;;;;;;5054678;28;20452;-50
2022/12/06 00:54:47;;;;;;;17.40;12.57;;;5.70;99.90;;;;;;5036738;28;20210;-50
2022/12/06 00:57:13;;;;;;;17.20;12.33;;;5.40;99.90;;;;;;5054517;28;20423;-50
2022/12/06 00:59:41;;;;;;;16.77;11.90;;;6.40;99.90;;;;;;5053907;28;20401;-50
2022/12/06 01:02:08;;;;;;;16.00;11.90;;;5.80;99.90;;;;;;5054495;28;20412;-50
2022/12/06 01:04:36;;;;;;;17.15;13.50;;;5.70;99.90;;;;;;5036796;28;20446;-50
2022/12/06 01:07:03;;;;;;;16.80;13.50;;;6.00;99.90;;;;;;5054491;28;20220;-50
2022/12/06 01:09:29;;;;;;;19.83;13.18;;;5.60;99.90;;;;;;5057473;28;20932;-50
2022/12/06 01:11:57;;;;;;;17.30;13.80;;;5.20;99.90;;;;;;5056247;28;20284;-50
2022/12/06 01:14:24;;;;;;;15.52;13.50;;;5.60;99.90;;;;;;5055495;28;20590;-50
2022/12/06 01:16:51;;;;;;;17.70;12.63;;;5.60;99.90;;;;;;5057931;28;20224;-49
2022/12/06 01:19:18;;;;;;;17.20;13.70;;;5.90;99.90;;;;;;5055434;28;20411;-50
2022/12/06 01:21:45;;;;;;;17.03;13.30;;;5.80;99.90;;;;;;5054380;28;20439;-50
2022/12/06 01:24:11;;;;;;;18.50;15.37;;;5.80;99.90;;;;;;5054057;28;20419;-50
2022/12/06 01:26:38;;;;;;;20.47;14.80;;;5.50;99.90;;;;;;5053126;28;20432;-50
2022/12/06 01:29:05;;;;;;;20.70;15.90;;;5.80;99.90;;;;;;5053408;28;20410;-50
2022/12/06 01:31:31;;;;;;;18.40;15.43;;;5.70;99.90;;;;;;5053895;28;20411;-50
2022/12/06 01:34:00;;;;;;;18.80;15.17;;;5.70;99.90;;;;;;5053953;28;20502;-50
2022/12/06 01:36:26;;;;;;;22.25;14.90;;;5.70;99.90;;;;;;5053845;28;20446;-49
2022/12/06 01:38:54;;;;;;;23.20;17.38;;;5.60;99.90;;;;;;5053145;28;20712;-50
2022/12/06 01:41:23;;;;;;;19.57;15.93;;;5.80;99.90;;;;;;5053754;28;20197;-51
2022/12/06 01:43:51;;;;;;;18.55;14.77;;;5.50;99.90;;;;;;5053753;28;20418;-50
2022/12/06 01:46:27;;;;;;;19.20;14.93;;;5.50;99.90;;;;;;5053639;28;20235;-50
2022/12/06 01:49:03;;;;;;;18.65;15.57;;;5.50;99.90;;;;;;5053129;28;20946;-50
2022/12/06 01:51:31;;;;;;;21.33;15.05;;;4.90;99.90;;;;;;5053692;28;20203;-50
2022/12/06 01:53:59;;;;;;;21.88;16.23;;;5.40;99.90;;;;;;5053387;28;20216;-50
2022/12/06 01:56:26;;;;;;;18.08;15.55;;;5.30;99.90;;;;;;5053407;28;20224;-49
2022/12/06 01:58:54;;;;;;;17.23;14.90;;;5.60;99.90;;;;;;5052819;28;20201;-50
2022/12/06 02:01:21;;;;;;;17.17;14.00;;;5.40;99.90;;;;;;5053175;28;20202;-50
2022/12/06 02:03:48;;;;;;;17.02;13.27;;;5.40;99.90;;;;;;5053408;28;20188;-50
2022/12/06 02:06:16;;;;;;;16.38;13.90;;;5.30;99.90;;;;;;5053199;28;20215;-50
2022/12/06 02:08:44;;;;;;;18.00;14.15;;;6.00;99.90;;;;;;5052644;28;20700;-50
2022/12/06 02:11:11;;;;;;;15.05;13.38;;;5.50;99.90;;;;;;5035291;28;20224;-50
2022/12/06 02:13:39;;;;;;;18.13;13.00;;;5.50;99.90;;;;;;5053080;28;20231;-50
2022/12/06 02:16:17;;;;;;;16.27;12.63;;;5.50;99.90;;;;;;5035409;28;20469;-49
2022/12/06 02:18:49;;;;;;;13.47;10.87;;;5.50;99.90;;;;;;5034485;28;20425;-50
2022/12/06 02:21:24;;;;;;;13.30;11.23;;;5.70;99.90;;;;;;5053203;28;20397;-50
2022/12/06 02:24:17;;;;;;;16.45;11.95;;;5.60;99.90;;;;;;5052956;28;20193;-50
2022/12/06 02:26:47;;;;;;;14.95;11.65;;;5.40;99.90;;;;;;5052872;28;20225;-50
2022/12/06 02:29:35;;;;;;;15.63;11.73;;;5.20;99.90;;;;;;5052135;28;20688;-50
2022/12/06 02:32:09;;;;;;;14.52;12.20;;;5.40;99.90;;;;;;5052859;28;20203;-50
2022/12/06 02:34:43;;;;;;;13.38;10.60;;;5.30;99.90;;;;;;5053003;28;20198;-50
2022/12/06 02:37:14;;;;;;;13.82;10.55;;;5.20;99.90;;;;;;5052532;28;20561;-50
2022/12/06 02:39:46;;;;;;;14.13;10.18;;;5.20;99.90;;;;;;5051913;28;20200;-50
2022/12/06 02:42:17;;;;;;;15.63;11.95;;;5.40;99.90;;;;;;5052772;28;20227;-50
2022/12/06 02:44:46;;;;;;;14.60;11.90;;;5.90;99.90;;;;;;5052535;28;20196;-50
2022/12/06 02:47:16;;;;;;;17.08;12.38;;;5.40;99.90;;;;;;5034662;28;20216;-49
2022/12/06 02:49:48;;;;;;;18.42;14.02;;;5.20;99.90;;;;;;5051805;28;20188;-50
2022/12/06 02:52:17;;;;;;;16.23;13.10;;;5.30;99.90;;;;;;5052468;28;20201;-50
2022/12/06 02:54:46;;;;;;;19.10;13.50;;;5.40;99.90;;;;;;5052599;28;20191;-50
2022/12/06 02:57:13;;;;;;;20.48;14.73;;;5.40;99.90;;;;;;5052535;28;20445;-50
2022/12/06 02:59:49;;;;;;;18.08;14.20;;;5.20;99.90;;;;;;5051611;28;20196;-49
2022/12/06 03:02:18;;;;;;;16.92;13.18;;;5.20;99.90;;;;;;5052314;28;20207;-50
2022/12/06 03:05:01;;;;;;;19.75;15.20;;;5.40;99.90;;;;;;5052304;28;20204;-49
2022/12/06 03:07:34;;;;;;;18.90;15.00;;;5.50;99.90;;;;;;5052378;28;20202;-49
2022/12/06 03:10:22;;;;;;;19.77;15.57;;;5.40;99.90;;;;;;5051729;28;20445;-50
2022/12/06 03:12:56;;;;;;;20.63;15.10;;;5.40;99.90;;;;;;5052038;28;20584;-49
2022/12/06 03:15:32;;;;;;;22.15;16.63;;;5.50;99.90;;;;;;5052309;28;20216;-49
2022/12/06 03:18:08;;;;;;;20.60;15.10;;;5.50;99.90;;;;;;5052576;28;20242;-50
2022/12/06 03:20:42;;;;;;;22.67;16.92;;;5.30;99.90;;;;;;5051770;28;20192;-49
2022/12/06 03:23:13;;;;;;;24.80;16.75;;;5.50;99.90;;;;;;5052215;28;20241;-49
2022/12/06 03:25:41;;;;;;;21.10;16.83;;;5.50;99.90;;;;;;5052231;28;20228;-49
2022/12/06 03:28:12;;;;;;;22.70;16.75;;;5.20;99.90;;;;;;5051877;28;20424;-49
2022/12/06 03:30:41;;;;;;;28.08;18.30;;;5.00;99.90;;;;;;5051538;28;20196;-49
2022/12/06 03:33:11;;;;;;;20.95;16.67;;;5.30;99.90;;;;;;5051783;28;20228;-50
2022/12/06 03:35:38;;;;;;;22.75;17.70;;;4.90;99.90;;;;;;5051794;28;20224;-50
2022/12/06 03:38:16;;;;;;;24.38;16.80;;;5.50;99.90;;;;;;5051798;28;20205;-50
2022/12/06 03:40:47;;;;;;;21.90;17.30;;;5.50;99.90;;;;;;5051497;28;20539;-50
2022/12/06 03:43:14;;;;;;;21.95;17.48;;;4.90;99.90;;;;;;5052002;28;20262;-50
2022/12/06 03:45:45;;;;;;;21.80;16.70;;;5.50;99.90;;;;;;5051664;28;20220;-50
2022/12/06 03:48:16;;;;;;;21.60;16.13;;;5.30;99.90;;;;;;5051788;28;20196;-50
2022/12/06 03:50:49;;;;;;;19.10;15.18;;;5.50;99.90;;;;;;5055382;28;20445;-50
2022/12/06 03:53:17;;;;;;;18.33;14.40;;;4.90;99.90;;;;;;5055779;28;20658;-50
2022/12/06 03:55:44;;;;;;;19.17;14.77;;;5.30;99.90;;;;;;5055750;28;20684;-50
2022/12/06 03:58:11;;;;;;;18.15;13.68;;;5.00;99.90;;;;;;5055664;28;20782;-50
2022/12/06 04:00:38;;;;;;;13.75;11.63;;;5.30;99.90;;;;;;5055009;28;20200;-50
2022/12/06 04:03:04;;;;;;;17.33;12.33;;;5.40;99.90;;;;;;5055610;28;20203;-50
2022/12/06 04:05:32;;;;;;;13.83;11.10;;;5.80;99.90;;;;;;5055635;28;20458;-49
2022/12/06 04:07:59;;;;;;;12.00;9.20;;;5.30;99.90;;;;;;5055523;28;20790;-50
2022/12/06 04:10:26;;;;;;;11.50;9.43;;;5.40;99.90;;;;;;5055064;28;20846;-49
2022/12/06 04:13:01;;;;;;;12.55;10.40;;;5.30;99.90;;;;;;5055367;28;20430;-50
2022/12/06 04:15:29;;;;;;;12.13;10.30;;;5.00;99.90;;;;;;5055246;28;20220;-50
2022/12/06 04:18:14;;;;;;;12.27;9.80;;;5.20;99.90;;;;;;5055232;28;20435;-50
2022/12/06 04:23:30;;;;;;;13.83;9.37;;;5.10;99.90;;;;;;5055271;28;20533;-50
2022/12/06 04:25:57;;;;;;;14.80;9.90;;;5.10;99.90;;;;;;5037130;28;20435;-50
2022/12/06 04:39:23;;;;;;;16.52;12.85;;;5.10;99.90;;;;;;5054342;28;20204;-49
2022/12/06 04:44:35;;;;;;;16.23;12.05;;;5.30;99.90;;;;;;5055067;28;20326;-50
2022/12/06 04:47:02;;;;;;;15.48;12.45;;;4.60;99.90;;;;;;5055308;28;20235;-50
2022/12/06 04:49:29;;;;;;;16.75;12.82;;;5.30;99.90;;;;;;5054069;28;20203;-50
2022/12/06 04:51:57;;;;;;;17.70;13.25;;;5.10;99.90;;;;;;5054756;28;20222;-50
2022/12/06 04:54:25;;;;;;;16.30;12.77;;;5.10;99.90;;;;;;5055016;28;20219;-50
2022/12/06 04:56:52;;;;;;;15.88;12.38;;;5.30;99.90;;;;;;5054723;28;20220;-50
2022/12/06 04:59:19;;;;;;;14.43;12.13;;;5.30;99.90;;;;;;5053701;28;20253;-50
2022/12/06 05:01:46;;;;;;;14.10;10.65;;;4.90;99.90;;;;;;5053432;28;20203;-50
2022/12/06 05:04:12;;;;;;;11.77;9.68;;;5.40;99.90;;;;;;5054578;28;20207;-50
2022/12/06 05:06:39;;;;;;;13.60;10.65;;;4.80;99.90;;;;;;5054388;28;20231;-50
2022/12/06 05:09:07;;;;;;;12.98;9.88;;;5.00;99.90;;;;;;5053702;28;20200;-49
2022/12/06 05:11:34;;;;;;;12.98;9.77;;;5.20;99.90;;;;;;5054354;28;20278;-50
2022/12/06 05:14:00;;;;;;;11.73;9.45;;;5.20;99.90;;;;;;5054617;28;20232;-50
2022/12/06 05:16:27;;;;;;;9.70;8.57;;;5.00;99.90;;;;;;5036037;28;20220;-50
2022/12/06 05:18:54;;;;;;;10.45;9.25;;;4.90;99.90;;;;;;5053634;28;20242;-50
2022/12/06 05:21:23;;;;;;;11.88;9.40;;;4.90;99.90;;;;;;5054294;28;20192;-50
2022/12/06 05:23:50;;;;;;;12.88;9.80;;;5.00;99.90;;;;;;5053976;28;20222;-50
2022/12/06 05:26:19;;;;;;;12.43;9.05;;;4.90;99.90;;;;;;5053649;28;20261;-49
2022/12/06 05:28:47;;;;;;;10.70;9.18;;;4.90;99.90;;;;;;5053347;28;20677;-49
2022/12/06 05:31:15;;;;;;;11.65;10.10;;;4.40;99.90;;;;;;5054615;28;20564;-49
2022/12/06 05:33:42;;;;;;;13.88;10.73;;;4.70;99.90;;;;;;5053941;28;20572;-49
2022/12/06 05:36:09;;;;;;;16.20;9.95;;;5.40;99.90;;;;;;5053646;28;20215;-49
2022/12/06 05:38:36;;;;;;;13.82;12.20;;;5.00;99.90;;;;;;5053163;28;20695;-49
2022/12/06 05:41:03;;;;;;;12.95;10.32;;;4.60;99.90;;;;;;5053788;28;20196;-50
2022/12/06 05:43:31;;;;;;;12.40;9.85;;;4.80;99.90;;;;;;5053623;28;20207;-49
2022/12/06 05:46:00;;;;;;;11.40;8.98;;;4.70;99.90;;;;;;5053424;28;20223;-49
2022/12/06 05:48:27;;;;;;;10.05;8.52;;;4.90;99.90;;;;;;5052915;28;20204;-49
2022/12/06 05:50:54;;;;;;;11.75;9.05;;;4.70;99.90;;;;;;5054042;28;20203;-49
2022/12/06 05:53:21;;;;;;;11.30;9.00;;;4.90;99.90;;;;;;5053233;28;20204;-49
2022/12/06 05:55:48;;;;;;;15.75;10.20;;;4.80;99.90;;;;;;5053383;28;20228;-49
2022/12/06 05:58:15;;;;;;;11.60;9.18;;;4.90;99.90;;;;;;5053221;28;20202;-49
2022/12/06 06:00:46;;;;;;;14.68;9.02;;;4.90;99.90;;;;;;5052833;28;20662;-50
2022/12/06 06:03:13;;;;;;;12.45;9.15;;;4.90;99.90;;;;;;5053417;28;20204;-49
2022/12/06 06:05:45;;;;;;;11.48;9.27;;;4.20;99.90;;;;;;5053370;28;20258;-50
2022/12/06 06:08:12;;;;;;;15.30;9.90;;;4.40;99.90;;;;;;5053586;28;20561;-50
2022/12/06 06:10:38;;;;;;;9.75;8.65;;;4.90;99.90;;;;;;5052663;28;20200;-49
2022/12/06 06:13:05;;;;;;;13.45;10.00;;;5.30;99.90;;;;;;5052571;28;20200;-50
2022/12/06 06:15:32;;;;;;;10.05;8.52;;;4.80;99.90;;;;;;5052735;28;20228;-50
2022/12/06 06:18:00;;;;;;;13.15;10.23;;;5.10;99.90;;;;;;5052767;28;20200;-50
2022/12/06 06:20:26;;;;;;;13.88;10.20;;;5.10;99.90;;;;;;5052193;28;20192;-50
2022/12/06 06:22:53;;;;;;;13.35;10.18;;;4.90;99.90;;;;;;5034663;28;20276;-50
2022/12/06 06:25:20;;;;;;;16.42;12.18;;;5.00;99.90;;;;;;5052869;28;20303;-50
2022/12/06 06:27:46;;;;;;;13.40;10.20;;;4.80;99.90;;;;;;5052464;28;20196;-50
2022/12/06 06:30:14;;;;;;;16.27;10.98;;;4.60;99.90;;;;;;5051987;28;20218;-50
2022/12/06 06:32:40;;;;;;;13.15;10.00;;;4.60;99.90;;;;;;5052566;28;20196;-49
2022/12/06 06:35:09;;;;;;;14.95;11.98;;;4.90;99.90;;;;;;5052639;28;20225;-49
2022/12/06 06:37:36;;;;;;;15.10;11.45;;;4.70;99.90;;;;;;5052094;28;20204;-49
2022/12/06 06:40:02;;;;;;;18.45;12.95;;;5.00;99.90;;;;;;5034130;28;20661;-50
2022/12/06 06:42:29;;;;;;;16.75;13.15;;;5.00;99.90;;;;;;5052189;28;20271;-50
2022/12/06 06:44:56;;;;;;;13.50;10.80;;;5.10;99.90;;;;;;5033913;28;20298;-50
2022/12/06 06:47:23;;;;;;;13.25;10.95;;;4.80;99.90;;;;;;5052170;28;20363;-50
2022/12/06 06:49:50;;;;;;;14.98;11.80;;;4.80;99.90;;;;;;5051775;28;20848;-49
2022/12/06 06:52:18;;;;;;;11.35;9.88;;;4.80;99.90;;;;;;5052340;28;20196;-49
2022/12/06 06:54:45;;;;;;;15.00;10.55;;;5.00;99.90;;;;;;5052008;28;20219;-50
2022/12/06 06:57:11;;;;;;;11.30;9.68;;;5.00;99.90;;;;;;5051967;28;20200;-49
2022/12/06 06:59:38;;;;;;;15.15;10.88;;;4.80;99.90;;;;;;5051283;28;20196;-49
2022/12/06 07:02:05;;;;;;;16.48;12.63;;;4.80;99.90;;;;;;5051907;28;20607;-50
2022/12/06 07:04:31;;;;;;;21.23;12.23;;;4.80;99.90;;;;;;5052278;28;20545;-50
2022/12/06 07:06:59;;;;;;;12.70;11.27;;;4.40;99.90;;;;;;5052160;28;20235;-49
2022/12/06 07:09:27;;;;;;;13.65;10.65;;;5.50;99.90;;;;;;5051291;28;20200;-49
2022/12/06 07:11:53;;;;;;;16.15;11.63;;;5.10;99.90;;;;;;5052140;28;20606;-49
2022/12/06 07:14:20;;;;;;;11.00;9.63;;;5.00;99.90;;;;;;5051991;28;20698;-52
2022/12/06 07:16:46;;;;;;;13.65;9.75;;;4.50;99.90;;;;;;5051895;28;20218;-50
2022/12/06 07:19:13;;;;;;;14.82;10.07;;;4.90;99.90;;;;;;5051621;28;20204;-49
2022/12/06 07:21:40;;;;;;;13.02;10.32;;;5.00;99.90;;;;;;5033856;28;20200;-49
2022/12/06 07:24:08;;;;;;;12.98;10.05;;;5.10;99.90;;;;;;5050481;28;20257;-50
2022/12/06 07:26:36;;;;;;;13.48;11.77;;;5.10;99.90;;;;;;5051351;28;20715;-50
2022/12/06 07:29:03;;;;;;;12.20;10.45;;;5.10;99.90;;;;;;5050839;28;20669;-49
2022/12/06 07:31:30;;;;;;;12.30;9.90;;;5.10;99.90;;;;;;5033658;28;20234;-51
2022/12/06 07:33:59;;;;;;;11.32;8.93;;;5.60;99.90;;;;;;5051373;28;20207;-50
2022/12/06 07:36:28;;;;;;;11.80;10.60;;;4.60;99.90;;;;;;5051392;28;20243;-50
2022/12/06 07:38:56;;;;;;;11.63;10.30;;;5.10;99.90;;;;;;5032634;28;20210;-49
2022/12/06 07:47:17;;;;;;;14.98;11.65;;;5.20;99.90;;;;;;5050992;28;20195;-50
2022/12/06 07:49:44;;;;;;;14.63;11.73;;;4.60;99.90;;;;;;5032275;28;20565;-50
2022/12/06 07:52:10;;;;;;;14.27;11.55;;;5.10;99.90;;;;;;5050663;28;20195;-51
2022/12/06 07:54:37;;;;;;;13.80;11.05;;;4.90;99.90;;;;;;5052722;28;20220;-49
2022/12/06 07:57:03;;;;;;;14.15;11.02;;;5.30;99.90;;;;;;5050900;28;20226;-49
2022/12/06 07:59:30;;;;;;;14.27;9.93;;;5.00;99.90;;;;;;5050430;28;20287;-50
2022/12/06 08:01:58;;;;;;;13.77;9.60;;;5.10;99.90;;;;;;5050815;28;20208;-49
2022/12/06 08:04:25;;;;;;;12.45;9.43;;;5.10;99.90;;;;;;5050958;28;20196;-50
2022/12/06 08:06:53;;;;;;;16.35;10.02;;;5.80;99.90;;;;;;5050895;28;20498;-50
2022/12/06 08:09:20;;;;;;;11.70;10.32;;;5.60;99.90;;;;;;5049713;28;20283;-50
2022/12/06 08:11:46;;;;;;;13.30;9.98;;;5.00;99.90;;;;;;5051261;28;20205;-50
2022/12/06 08:14:14;;;;;;;13.27;11.07;;;5.10;99.90;;;;;;5051389;28;20270;-50
2022/12/06 08:16:41;;;;;;;13.52;11.00;;;5.10;99.90;;;;;;5051138;28;20273;-50
2022/12/06 08:19:09;;;;;;;14.65;10.18;;;5.20;99.90;;;;;;5050066;28;20273;-51
2022/12/06 08:21:36;;;;;;;13.55;11.35;;;5.20;99.90;;;;;;5051319;28;20543;-48
2022/12/06 08:24:03;;;;;;;11.73;10.35;;;5.50;99.90;;;;;;5051201;28;20200;-49
2022/12/06 08:26:30;;;;;;;12.02;9.48;;;5.40;99.90;;;;;;5050676;28;20697;-49
2022/12/06 08:28:59;;;;;;;13.55;10.23;;;5.10;99.90;;;;;;5049918;28;20200;-50
2022/12/06 08:31:26;;;;;;;12.38;9.40;;;4.90;99.90;;;;;;5050310;28;20200;-50
2022/12/06 08:33:53;;;;;;;10.88;8.50;;;5.30;99.90;;;;;;5050667;28;20200;-51
2022/12/06 08:36:22;;;;;;;16.80;9.48;;;5.40;99.90;;;;;;5054020;28;20223;-50
2022/12/06 08:38:49;;;;;;;11.90;9.35;;;5.30;99.90;;;;;;5054054;28;20200;-50
2022/12/06 08:44:02;;;;;;;11.82;9.30;;;5.50;99.90;;;;;;5054557;28;20667;-50
2022/12/06 08:46:29;;;;;;;9.68;8.18;;;5.10;99.90;;;;;;5054219;28;20239;-50
2022/12/06 08:48:57;;;;;;;11.40;8.15;;;4.90;99.90;;;;;;5053189;28;20200;-50
2022/12/06 08:51:25;;;;;;;8.68;7.40;;;4.80;99.90;;;;;;5053988;28;20207;-48
2022/12/06 08:53:53;;;;;;;11.77;8.65;;;5.10;99.90;;;;;;5054095;28;20569;-49
2022/12/06 08:56:20;;;;;;;8.63;7.72;;;5.30;99.90;;;;;;5054492;28;20672;-49
2022/12/06 08:58:47;;;;;;;8.77;7.30;;;5.40;99.90;;;;;;5053341;28;20255;-49
2022/12/06 09:01:15;;;;;;;11.23;8.30;;;5.30;99.90;;;;;;5054157;28;20216;-51
2022/12/06 09:03:42;;;;;;;9.43;7.70;;;5.30;99.90;;;;;;5054538;28;20204;-50
2022/12/06 09:06:10;;;;;;;8.27;7.43;;;5.30;99.90;;;;;;5053900;28;20212;-50
2022/12/06 09:08:38;;;;;;;9.68;7.78;;;5.40;99.90;;;;;;5053387;28;20215;-50
2022/12/06 09:11:06;;;;;;;11.75;7.65;;;5.20;99.90;;;;;;5054204;28;20200;-50
2022/12/06 09:13:33;;;;;;;9.48;8.05;;;5.50;99.90;;;;;;5053762;28;20664;-50
2022/12/06 09:16:01;;;;;;;9.97;6.77;;;5.50;99.90;;;;;;5035711;28;20254;-50
2022/12/06 09:18:28;;;;;;;11.10;7.95;;;5.30;99.90;;;;;;5052941;28;20434;-50
2022/12/06 09:20:55;;;;;;;7.75;6.13;;;5.50;99.90;;;;;;5053584;28;20681;-49
2022/12/06 09:23:22;;;;;;;8.18;6.18;;;5.70;99.90;;;;;;5035862;28;20200;-50
2022/12/06 09:25:50;;;;;;;6.88;6.15;;;5.60;99.90;;;;;;5053400;28;20214;-50
2022/12/06 09:28:16;;;;;;;7.07;6.25;;;5.30;99.90;;;;;;5053588;28;20554;-50
2022/12/06 09:30:43;;;;;;;9.40;6.50;;;5.90;99.90;;;;;;5052652;28;20245;-49
2022/12/06 09:33:10;;;;;;;8.20;6.20;;;4.80;99.90;;;;;;5052960;28;20192;-50
2022/12/06 09:35:36;;;;;;;9.02;6.38;;;5.20;99.90;;;;;;5053125;28;20700;-50
2022/12/06 09:38:03;;;;;;;11.13;6.75;;;5.30;99.90;;;;;;5053275;28;20265;-50
2022/12/06 09:40:33;;;;;;;7.63;6.20;;;5.30;99.90;;;;;;5052589;28;20562;-50
2022/12/06 09:43:24;;;;;;;9.55;7.93;;;5.60;99.90;;;;;;5053273;28;20284;-50
2022/12/06 09:46:12;;;;;;;9.23;6.75;;;5.40;99.90;;;;;;5052396;28;20221;-49
2022/12/06 09:48:57;;;;;;;9.98;7.45;;;5.50;99.90;;;;;;5052349;28;20625;-50
2022/12/06 09:51:35;;;;;;;10.40;7.40;;;5.60;99.90;;;;;;5052962;28;20196;-50
2022/12/06 09:54:15;;;;;;;13.53;8.20;;;5.70;99.90;;;;;;5053165;28;20497;-49
2022/12/06 09:56:47;;;;;;;8.55;6.72;;;5.50;99.90;;;;;;5052723;28;20493;-50
2022/12/06 09:59:24;;;;;;;8.90;6.93;;;5.50;99.90;;;;;;5052316;28;20207;-49
2022/12/06 10:02:07;;;;;;;6.93;5.72;;;5.40;99.90;;;;;;5053175;28;20566;-49
2022/12/06 10:05:04;;;;;;;9.10;6.25;;;5.60;99.90;;;;;;5053415;28;20307;-49
2022/12/06 10:07:41;;;;;;;8.93;8.00;;;5.60;99.90;;;;;;5034004;28;20254;-49
2022/12/06 10:10:18;;;;;;;9.45;7.57;;;5.50;99.90;;;;;;5051867;28;20405;-49
2022/12/06 10:12:58;;;;;;;10.60;8.00;;;5.70;99.90;;;;;;5053110;28;20262;-49
2022/12/06 10:15:39;;;;;;;10.20;7.63;;;5.10;99.90;;;;;;5052795;28;20220;-49
2022/12/06 10:18:26;;;;;;;8.97;7.37;;;5.60;99.90;;;;;;5052828;28;20405;-50
2022/12/06 10:21:00;;;;;;;11.75;6.63;;;5.50;99.90;;;;;;5052720;28;20401;-49
2022/12/06 10:23:39;;;;;;;7.40;6.50;;;5.40;99.90;;;;;;5052221;28;20203;-49
2022/12/06 10:26:13;;;;;;;13.17;6.17;;;5.60;99.90;;;;;;5052119;28;20474;-49
2022/12/06 10:28:44;;;;;;;8.93;7.10;;;5.30;99.90;;;;;;5033413;28;20424;-50
2022/12/06 10:31:24;;;;;;;9.25;7.50;;;5.60;99.90;;;;;;5052246;28;20431;-50
2022/12/06 10:33:58;;;;;;;9.45;8.10;;;5.70;99.90;;;;;;5052286;28;20196;-49
2022/12/06 10:36:40;;;;;;;10.60;8.00;;;5.60;99.90;;;;;;5052186;28;20220;-51
2022/12/06 10:39:14;;;;;;;9.25;7.45;;;5.50;99.90;;;;;;5051925;28;20946;-49
2022/12/06 10:41:47;;;;;;;7.60;6.83;;;6.00;99.90;;;;;;5052199;28;20211;-49
2022/12/06 10:44:20;;;;;;;9.98;7.85;;;5.40;99.90;;;;;;5052381;28;20414;-50
2022/12/06 10:47:03;;;;;;;8.50;6.82;;;6.30;99.90;;;;;;5052560;28;20228;-49
2022/12/06 10:49:40;;;;;;;10.63;7.17;;;5.70;99.90;;;;;;5051323;28;20680;-48
2022/12/06 10:52:19;;;;;;;9.35;7.10;;;6.00;99.90;;;;;;5052177;28;20427;-48
2022/12/06 10:54:55;;;;;;;8.00;6.10;;;5.70;99.90;;;;;;5051797;28;20207;-50
2022/12/06 10:57:30;;;;;;;9.33;8.23;;;5.50;99.90;;;;;;5033831;28;20442;-47
2022/12/06 11:00:02;;;;;;;8.40;7.50;;;5.40;99.90;;;;;;5033347;28;20446;-48
2022/12/06 11:02:38;;;;;;;11.07;8.90;;;5.60;99.90;;;;;;5033987;28;20428;-49
2022/12/06 11:05:16;;;;;;;9.40;7.30;;;5.40;99.90;;;;;;5052217;28;20199;-48
2022/12/06 11:07:46;;;;;;;11.03;8.17;;;5.60;99.90;;;;;;5051792;28;20438;-49
2022/12/06 11:10:21;;;;;;;9.85;7.78;;;5.60;99.90;;;;;;5050799;28;20404;-48
2022/12/06 11:12:53;;;;;;;9.80;8.13;;;5.70;99.90;;;;;;5051445;28;20188;-49
2022/12/06 11:15:23;;;;;;;10.50;8.43;;;5.60;99.90;;;;;;5052056;28;20224;-49
2022/12/06 11:17:56;;;;;;;10.13;9.10;;;5.50;99.90;;;;;;5051811;28;20665;-49
2022/12/06 11:20:27;;;;;;;14.50;9.27;;;5.80;99.90;;;;;;5051592;28;20201;-50
2022/12/06 11:23:08;;;;;;;12.73;10.50;;;5.90;99.90;;;;;;5051587;28;20552;-50
2022/12/06 11:25:43;;;;;;;11.75;9.57;;;5.70;99.90;;;;;;5051179;28;20416;-49
2022/12/06 11:28:24;;;;;;;10.32;8.95;;;5.40;99.90;;;;;;5051384;28;20208;-48
2022/12/06 11:30:53;;;;;;;11.80;9.60;;;5.50;99.90;;;;;;5051498;28;20196;-50
2022/12/06 11:33:25;;;;;;;12.17;8.87;;;5.50;99.90;;;;;;5051350;28;20764;-50
2022/12/06 11:35:52;;;;;;;12.90;9.25;;;5.80;99.90;;;;;;5051021;28;20449;-48
2022/12/06 11:38:19;;;;;;;13.40;10.15;;;5.50;99.90;;;;;;5051319;28;20247;-49
2022/12/06 11:40:49;;;;;;;10.97;8.60;;;5.40;99.90;;;;;;5051014;28;20219;-49
2022/12/06 11:43:19;;;;;;;11.07;8.80;;;5.60;99.90;;;;;;5050976;28;20431;-49
2022/12/06 11:45:46;;;;;;;10.00;8.80;;;5.50;99.90;;;;;;5051083;28;20213;-49
2022/12/06 11:48:16;;;;;;;16.77;9.85;;;5.70;99.90;;;;;;5050841;28;20669;-49
2022/12/06 11:50:45;;;;;;;12.30;9.23;;;5.60;99.90;;;;;;5050234;28;20536;-49
2022/12/06 11:53:20;;;;;;;11.50;9.43;;;5.00;99.90;;;;;;5051157;28;20663;-48
2022/12/06 11:55:49;;;;;;;12.88;8.70;;;5.90;99.90;;;;;;5050848;28;20474;-49
2022/12/06 11:58:21;;;;;;;15.20;9.30;;;6.30;99.90;;;;;;5051483;28;20212;-48
2022/12/06 12:01:01;;;;;;;9.85;8.20;;;5.60;99.90;;;;;;5050636;28;20453;-48
2022/12/06 12:03:29;;;;;;;9.47;7.60;;;5.90;99.90;;;;;;5051422;28;20224;-48
2022/12/06 12:06:25;;;;;;;12.00;8.07;;;5.40;99.90;;;;;;5051514;28;20452;-48
2022/12/06 12:08:56;;;;;;;12.20;8.23;;;6.10;99.90;;;;;;5004543;28;20929;-50
2022/12/06 12:11:26;;;;;;;10.68;7.68;;;5.80;99.90;;;;;;5037128;28;20957;-49
2022/12/06 12:13:57;;;;;;;10.43;7.90;;;5.30;99.90;;;;;;5055202;28;20211;-49
2022/12/06 12:16:28;;;;;;;10.13;8.13;;;5.80;99.90;;;;;;5055019;28;20493;-49
2022/12/06 12:18:58;;;;;;;9.55;8.02;;;6.40;99.90;;;;;;5054450;28;20927;-49
2022/12/06 12:21:40;;;;;;;8.70;7.80;;;5.90;99.90;;;;;;5054842;28;20203;-48
2022/12/06 12:24:47;;;;;;;11.90;7.50;;;5.90;99.90;;;;;;5055218;28;20434;-49
2022/12/06 12:27:43;;;;;;;9.57;7.30;;;5.80;99.90;;;;;;5055290;28;20480;-48
2022/12/06 12:30:37;;;;;;;10.07;8.80;;;5.60;99.90;;;;;;5053940;28;20205;-47
2022/12/06 12:33:25;;;;;;;10.80;8.55;;;5.60;99.90;;;;;;5054675;28;20405;-48
2022/12/06 12:35:55;;;;;;;7.45;6.53;;;5.80;99.90;;;;;;5048777;28;20251;-48
2022/12/06 12:38:27;;;;;;;9.30;7.37;;;6.00;99.90;;;;;;5054408;28;20202;-48
2022/12/06 12:40:57;;;;;;;7.37;5.97;;;5.70;99.90;;;;;;5054494;28;20406;-48
2022/12/06 12:43:25;;;;;;;8.60;4.70;;;5.80;99.90;;;;;;5054496;28;20502;-48
2022/12/06 12:46:15;;;;;;;9.03;5.00;;;5.70;99.90;;;;;;5054124;28;20708;-48
2022/12/06 12:48:44;;;;;;;7.10;5.87;;;5.80;99.90;;;;;;5043771;28;20668;-49
2022/12/06 12:51:22;;;;;;;6.82;6.10;;;5.30;99.90;;;;;;5054872;28;20784;-48
2022/12/06 12:53:56;;;;;;;6.60;5.37;;;5.70;99.90;;;;;;5054689;28;20197;-49
2022/12/06 12:56:23;;;;;;;5.73;5.13;;;5.80;99.90;;;;;;5054505;28;20907;-49
2022/12/06 12:58:52;;;;;;;6.00;5.40;;;5.60;99.90;;;;;;5054273;28;21242;-49
2022/12/06 13:01:33;;;;;;;5.77;5.00;;;5.60;99.90;;;;;;5054391;28;20197;-50
2022/12/06 13:04:04;;;;;;;5.60;5.07;;;5.60;99.90;;;;;;5054320;28;20421;-48
2022/12/06 13:06:38;;;;;;;7.93;5.00;;;5.90;99.90;;;;;;5054080;28;20558;-49
2022/12/06 13:09:13;;;;;;;8.83;7.57;;;5.60;99.90;;;;;;5053814;28;20442;-49
2022/12/06 13:11:46;;;;;;;10.57;5.45;;;5.10;99.90;;;;;;5054361;28;20729;-50
2022/12/06 13:14:18;;;;;;;9.48;5.70;;;5.50;99.90;;;;;;5053552;28;20200;-48
2022/12/06 13:16:48;;;;;;;8.77;6.00;;;5.10;99.90;;;;;;5035543;28;20316;-51
2022/12/06 13:19:18;;;;;;;9.73;5.50;;;5.60;99.90;;;;;;5052807;28;20493;-49
2022/12/06 13:21:45;;;;;;;6.82;5.15;;;5.60;99.90;;;;;;5052163;28;20626;-49
2022/12/06 13:24:21;;;;;;;6.80;5.82;;;5.50;99.90;;;;;;5054230;28;20601;-50